MSC Ludovica — HPAF — position and weather

sailwx.info

Track history (hours):
 
Tides and Currents Weather Stations Pressure Air Temp Water Temp Dewpoint Dewpoint Depression Visibility Wind Speed Wind Dir Waves Ship Positions

MSC Ludovica

Last reported at 2017-Jan-24 04:33 UTC. Time now 2017-Jan-24 05:00 UTC.
Position N 29°12' W 094°31'.

Length 301 m; draft 10.2 m.

Type: Ship. MMSI: 351248000.

Date/timePositionNaut miles runAvg speedWind from/ knotsBaromVisibWave heightAir tempDewpointWater temp
2017-Jan-24 04:33N 29°12' W 094°31'1414.0
2017-Jan-24 03:33N 29°21' W 094°43'1110.6
2017-Jan-24 02:34N 29°28' W 094°51'1010.3
2017-Jan-24 01:33N 29°37' W 094°58'4 3.9
2017-Jan-24 00:31N 29°41' W 094°59'0 0.0
2017-Jan-23 23:28N 29°41' W 094°59'0 0.0
2017-Jan-23 22:28N 29°41' W 094°59'0 0.0
2017-Jan-23 21:25N 29°41' W 094°59'0 0.0
2017-Jan-23 20:31N 29°41' W 094°59'0 0.0
2017-Jan-23 19:28N 29°41' W 094°59'0 0.0
2017-Jan-23 18:31N 29°41' W 094°59'0 0.0
2017-Jan-23 17:25N 29°41' W 094°59'0 0.0
2017-Jan-23 16:31N 29°41' W 094°59'0 0.0
2017-Jan-23 15:31N 29°41' W 094°59'0 0.0
2017-Jan-23 14:28N 29°41' W 094°59'0 0.0
2017-Jan-23 13:28N 29°41' W 094°59'0 0.0
2017-Jan-23 12:31N 29°41' W 094°59'0 0.0
2017-Jan-23 11:31N 29°41' W 094°59'0 0.0
2017-Jan-23 10:31N 29°41' W 094°59'0 0.0
2017-Jan-23 09:31N 29°41' W 094°59'0 0.0
2017-Jan-23 08:25N 29°41' W 094°59'0 0.0
2017-Jan-23 07:31N 29°41' W 094°59'0 0.0
2017-Jan-23 06:31N 29°41' W 094°59'0 0.0
2017-Jan-23 05:25N 29°41' W 094°59'0 0.0
2017-Jan-23 04:31N 29°41' W 094°59'0 0.0
2017-Jan-23 03:31N 29°41' W 094°59'0 0.0
2017-Jan-23 02:28N 29°41' W 094°59'0 0.0
2017-Jan-23 01:28N 29°41' W 094°59'0 0.0
2017-Jan-23 00:31N 29°41' W 094°59'0 0.0
2017-Jan-22 23:31N 29°41' W 094°59'0 0.0
2017-Jan-22 22:31N 29°41' W 094°59'0 0.0
2017-Jan-22 20:31N 29°41' W 094°59'0 0.0
2017-Jan-22 19:31N 29°41' W 094°59'0 0.0
2017-Jan-22 18:25N 29°41' W 094°59'0 0.0
2017-Jan-22 17:31N 29°41' W 094°59'0 0.0
2017-Jan-22 16:31N 29°41' W 094°59'0 0.0
2017-Jan-22 15:31N 29°41' W 094°59'0 0.0
2017-Jan-22 14:31N 29°41' W 094°59'0 0.0
2017-Jan-22 13:31N 29°41' W 094°59'0 0.0
2017-Jan-22 12:31N 29°41' W 094°59'0 0.0
2017-Jan-22 11:31N 29°41' W 094°59'0 0.0
2017-Jan-22 10:31N 29°41' W 094°59'0 0.0
2017-Jan-22 09:31N 29°41' W 094°59'0 0.0
2017-Jan-22 08:31N 29°41' W 094°59'0 0.0
2017-Jan-22 07:31N 29°41' W 094°59'0 0.0
2017-Jan-22 06:33N 29°41' W 094°59'5 4.7
2017-Jan-22 05:33N 29°37' W 094°57'1212.4
2017-Jan-22 04:33N 29°26' W 094°50'1111.1
2017-Jan-22 03:33N 29°20' W 094°40'1413.5
2017-Jan-22 02:33N 29°11' W 094°27'  
2017-Jan-18 14:34N 19°41' W 095°54'2020.4
2017-Jan-18 13:34N 19°21' W 095°57'1111.3
2017-Jan-18 12:33N 19°11' W 096°04'5 4.6
2017-Jan-18 11:33N 19°13' W 096°08'0 0.0
2017-Jan-18 10:27N 19°13' W 096°08'0 0.0
2017-Jan-18 09:33N 19°13' W 096°08'0 0.0
2017-Jan-18 08:30N 19°13' W 096°08'0 0.0
2017-Jan-18 07:33N 19°13' W 096°08'0 0.0
2017-Jan-18 06:33N 19°13' W 096°08'0 0.0
2017-Jan-18 05:33N 19°13' W 096°08'0 0.0
2017-Jan-18 04:33N 19°13' W 096°08'0 0.0
2017-Jan-18 03:33N 19°13' W 096°08'0 0.0
2017-Jan-18 02:33N 19°13' W 096°08'0 0.0
2017-Jan-18 01:33N 19°13' W 096°08'0 0.0
2017-Jan-18 00:33N 19°13' W 096°08'0 0.0
2017-Jan-17 23:33N 19°13' W 096°08'0 0.0
2017-Jan-17 22:33N 19°13' W 096°08'2 2.1
2017-Jan-17 21:33N 19°12' W 096°06'6 5.7
2017-Jan-17 20:31N 19°08' W 096°01'0 0.0
2017-Jan-17 19:31N 19°08' W 096°01'0 0.0
2017-Jan-17 18:31N 19°08' W 096°01'0 0.0
2017-Jan-17 17:31N 19°08' W 096°01'0 0.0
2017-Jan-17 16:19N 19°08' W 096°01'3 4.4
2017-Jan-17 15:33N 19°11' W 096°00'1111.1
2017-Jan-17 14:32N 19°23' W 096°00'  
Track history (hours):
 
Tides and Currents Weather Stations Pressure Air Temp Water Temp Dewpoint Dewpoint Depression Visibility Wind Speed Wind Dir Waves Ship Positions

MSC Ludovica

Last reported at 2017-Jan-24 04:33 UTC. Time now 2017-Jan-24 05:00 UTC.
Position N 29°12' W 094°31'.

Length 301 m; draft 10.2 m.

Type: Ship. MMSI: 351248000.

Date/timePositionNaut miles runAvg speedWind from/ knotsBaromVisibWave heightAir tempDewpointWater temp
2017-Jan-24 04:33N 29°12' W 094°31'1414.0
2017-Jan-24 03:33N 29°21' W 094°43'1110.6
2017-Jan-24 02:34N 29°28' W 094°51'1010.3
2017-Jan-24 01:33N 29°37' W 094°58'4 3.9
2017-Jan-24 00:31N 29°41' W 094°59'0 0.0
2017-Jan-23 23:28N 29°41' W 094°59'0 0.0
2017-Jan-23 22:28N 29°41' W 094°59'0 0.0
2017-Jan-23 21:25N 29°41' W 094°59'0 0.0
2017-Jan-23 20:31N 29°41' W 094°59'0 0.0
2017-Jan-23 19:28N 29°41' W 094°59'0 0.0
2017-Jan-23 18:31N 29°41' W 094°59'0 0.0
2017-Jan-23 17:25N 29°41' W 094°59'0 0.0
2017-Jan-23 16:31N 29°41' W 094°59'0 0.0
2017-Jan-23 15:31N 29°41' W 094°59'0 0.0
2017-Jan-23 14:28N 29°41' W 094°59'0 0.0
2017-Jan-23 13:28N 29°41' W 094°59'0 0.0
2017-Jan-23 12:31N 29°41' W 094°59'0 0.0
2017-Jan-23 11:31N 29°41' W 094°59'0 0.0
2017-Jan-23 10:31N 29°41' W 094°59'0 0.0
2017-Jan-23 09:31N 29°41' W 094°59'0 0.0
2017-Jan-23 08:25N 29°41' W 094°59'0 0.0
2017-Jan-23 07:31N 29°41' W 094°59'0 0.0
2017-Jan-23 06:31N 29°41' W 094°59'0 0.0
2017-Jan-23 05:25N 29°41' W 094°59'0 0.0
2017-Jan-23 04:31N 29°41' W 094°59'0 0.0
2017-Jan-23 03:31N 29°41' W 094°59'0 0.0
2017-Jan-23 02:28N 29°41' W 094°59'0 0.0
2017-Jan-23 01:28N 29°41' W 094°59'0 0.0
2017-Jan-23 00:31N 29°41' W 094°59'0 0.0
2017-Jan-22 23:31N 29°41' W 094°59'0 0.0
2017-Jan-22 22:31N 29°41' W 094°59'0 0.0
2017-Jan-22 20:31N 29°41' W 094°59'0 0.0
2017-Jan-22 19:31N 29°41' W 094°59'0 0.0
2017-Jan-22 18:25N 29°41' W 094°59'0 0.0
2017-Jan-22 17:31N 29°41' W 094°59'0 0.0
2017-Jan-22 16:31N 29°41' W 094°59'0 0.0
2017-Jan-22 15:31N 29°41' W 094°59'0 0.0
2017-Jan-22 14:31N 29°41' W 094°59'0 0.0
2017-Jan-22 13:31N 29°41' W 094°59'0 0.0
2017-Jan-22 12:31N 29°41' W 094°59'0 0.0
2017-Jan-22 11:31N 29°41' W 094°59'0 0.0
2017-Jan-22 10:31N 29°41' W 094°59'0 0.0
2017-Jan-22 09:31N 29°41' W 094°59'0 0.0
2017-Jan-22 08:31N 29°41' W 094°59'0 0.0
2017-Jan-22 07:31N 29°41' W 094°59'0 0.0
2017-Jan-22 06:33N 29°41' W 094°59'5 4.7
2017-Jan-22 05:33N 29°37' W 094°57'1212.4
2017-Jan-22 04:33N 29°26' W 094°50'1111.1
2017-Jan-22 03:33N 29°20' W 094°40'1413.5
2017-Jan-22 02:33N 29°11' W 094°27'  
2017-Jan-18 14:34N 19°41' W 095°54'2020.4
2017-Jan-18 13:34N 19°21' W 095°57'1111.3
2017-Jan-18 12:33N 19°11' W 096°04'5 4.6
2017-Jan-18 11:33N 19°13' W 096°08'0 0.0
2017-Jan-18 10:27N 19°13' W 096°08'0 0.0
2017-Jan-18 09:33N 19°13' W 096°08'0 0.0
2017-Jan-18 08:30N 19°13' W 096°08'0 0.0
2017-Jan-18 07:33N 19°13' W 096°08'0 0.0
2017-Jan-18 06:33N 19°13' W 096°08'0 0.0
2017-Jan-18 05:33N 19°13' W 096°08'0 0.0
2017-Jan-18 04:33N 19°13' W 096°08'0 0.0
2017-Jan-18 03:33N 19°13' W 096°08'0 0.0
2017-Jan-18 02:33N 19°13' W 096°08'0 0.0
2017-Jan-18 01:33N 19°13' W 096°08'0 0.0
2017-Jan-18 00:33N 19°13' W 096°08'0 0.0
2017-Jan-17 23:33N 19°13' W 096°08'0 0.0
2017-Jan-17 22:33N 19°13' W 096°08'2 2.1
2017-Jan-17 21:33N 19°12' W 096°06'6 5.7
2017-Jan-17 20:31N 19°08' W 096°01'0 0.0
2017-Jan-17 19:31N 19°08' W 096°01'0 0.0
2017-Jan-17 18:31N 19°08' W 096°01'0 0.0
2017-Jan-17 17:31N 19°08' W 096°01'0 0.0
2017-Jan-17 16:19N 19°08' W 096°01'3 4.4
2017-Jan-17 15:33N 19°11' W 096°00'1111.1
2017-Jan-17 14:32N 19°23' W 096°00'  

Dump ship's entire track history